sensor_id;sensor_type;location;lat;lon;timestamp;P1;durP1;ratioP1;P2;durP2;ratioP2
9128;SDS011;4599;50.906;6.786;2024-01-15T00:03:16;28.27;;;12.67;;
9128;SDS011;4599;50.906;6.786;2024-01-15T00:07:18;25.10;;;12.80;;
9128;SDS011;4599;50.906;6.786;2024-01-15T00:11:20;24.17;;;11.97;;
9128;SDS011;4599;50.906;6.786;2024-01-15T00:15:21;26.80;;;12.13;;
9128;SDS011;4599;50.906;6.786;2024-01-15T00:19:24;30.03;;;13.10;;
9128;SDS011;4599;50.906;6.786;2024-01-15T00:23:26;26.33;;;12.47;;
9128;SDS011;4599;50.906;6.786;2024-01-15T00:27:28;26.17;;;12.80;;
9128;SDS011;4599;50.906;6.786;2024-01-15T00:31:29;29.40;;;12.83;;
9128;SDS011;4599;50.906;6.786;2024-01-15T00:35:32;27.33;;;12.93;;
9128;SDS011;4599;50.906;6.786;2024-01-15T00:39:34;26.80;;;12.63;;
9128;SDS011;4599;50.906;6.786;2024-01-15T00:43:36;28.43;;;13.37;;
9128;SDS011;4599;50.906;6.786;2024-01-15T00:47:38;28.77;;;12.93;;
9128;SDS011;4599;50.906;6.786;2024-01-15T00:51:41;24.60;;;12.13;;
9128;SDS011;4599;50.906;6.786;2024-01-15T00:55:43;26.47;;;13.50;;
9128;SDS011;4599;50.906;6.786;2024-01-15T00:59:45;30.90;;;13.77;;
9128;SDS011;4599;50.906;6.786;2024-01-15T01:03:48;28.80;;;13.13;;
9128;SDS011;4599;50.906;6.786;2024-01-15T01:07:51;26.07;;;12.80;;
9128;SDS011;4599;50.906;6.786;2024-01-15T01:11:53;27.80;;;12.97;;
9128;SDS011;4599;50.906;6.786;2024-01-15T01:15:54;32.87;;;13.73;;
9128;SDS011;4599;50.906;6.786;2024-01-15T01:19:56;27.57;;;13.50;;
9128;SDS011;4599;50.906;6.786;2024-01-15T01:24:00;29.90;;;13.07;;
9128;SDS011;4599;50.906;6.786;2024-01-15T01:28:01;27.77;;;13.83;;
9128;SDS011;4599;50.906;6.786;2024-01-15T01:32:03;31.83;;;14.10;;
9128;SDS011;4599;50.906;6.786;2024-01-15T01:36:07;28.33;;;12.43;;
9128;SDS011;4599;50.906;6.786;2024-01-15T01:40:10;30.37;;;14.27;;
9128;SDS011;4599;50.906;6.786;2024-01-15T01:44:12;32.77;;;14.00;;
9128;SDS011;4599;50.906;6.786;2024-01-15T01:48:13;32.10;;;14.57;;
9128;SDS011;4599;50.906;6.786;2024-01-15T01:52:15;29.07;;;13.33;;
9128;SDS011;4599;50.906;6.786;2024-01-15T01:56:18;35.53;;;14.33;;
9128;SDS011;4599;50.906;6.786;2024-01-15T02:00:20;29.83;;;13.90;;
9128;SDS011;4599;50.906;6.786;2024-01-15T02:04:22;35.63;;;14.47;;
9128;SDS011;4599;50.906;6.786;2024-01-15T02:08:25;28.70;;;13.70;;
9128;SDS011;4599;50.906;6.786;2024-01-15T02:12:28;34.67;;;14.13;;
9128;SDS011;4599;50.906;6.786;2024-01-15T02:16:30;32.90;;;14.33;;
9128;SDS011;4599;50.906;6.786;2024-01-15T02:20:32;30.07;;;13.73;;
9128;SDS011;4599;50.906;6.786;2024-01-15T02:24:35;28.57;;;13.40;;
9128;SDS011;4599;50.906;6.786;2024-01-15T02:28:37;31.63;;;13.57;;
9128;SDS011;4599;50.906;6.786;2024-01-15T02:32:39;34.00;;;15.00;;
9128;SDS011;4599;50.906;6.786;2024-01-15T02:36:41;31.77;;;14.73;;
9128;SDS011;4599;50.906;6.786;2024-01-15T02:40:44;34.07;;;14.47;;
9128;SDS011;4599;50.906;6.786;2024-01-15T02:44:46;32.10;;;13.57;;
9128;SDS011;4599;50.906;6.786;2024-01-15T02:48:47;31.37;;;14.37;;
9128;SDS011;4599;50.906;6.786;2024-01-15T02:52:49;30.47;;;14.10;;
9128;SDS011;4599;50.906;6.786;2024-01-15T02:56:52;26.63;;;13.67;;
9128;SDS011;4599;50.906;6.786;2024-01-15T03:00:53;27.53;;;12.47;;
9128;SDS011;4599;50.906;6.786;2024-01-15T03:04:55;28.90;;;12.93;;
9128;SDS011;4599;50.906;6.786;2024-01-15T03:08:57;24.63;;;12.60;;
9128;SDS011;4599;50.906;6.786;2024-01-15T03:13:00;27.70;;;13.73;;
9128;SDS011;4599;50.906;6.786;2024-01-15T03:17:01;26.23;;;12.70;;
9128;SDS011;4599;50.906;6.786;2024-01-15T03:21:03;24.93;;;12.90;;
9128;SDS011;4599;50.906;6.786;2024-01-15T03:25:06;26.60;;;13.40;;
9128;SDS011;4599;50.906;6.786;2024-01-15T03:29:09;28.67;;;14.37;;
9128;SDS011;4599;50.906;6.786;2024-01-15T03:33:11;29.40;;;14.80;;
9128;SDS011;4599;50.906;6.786;2024-01-15T03:37:13;26.97;;;14.10;;
9128;SDS011;4599;50.906;6.786;2024-01-15T03:41:15;26.93;;;14.67;;
9128;SDS011;4599;50.906;6.786;2024-01-15T03:45:18;23.57;;;13.73;;
9128;SDS011;4599;50.906;6.786;2024-01-15T03:49:19;27.80;;;14.30;;
9128;SDS011;4599;50.906;6.786;2024-01-15T03:53:21;28.43;;;15.17;;
9128;SDS011;4599;50.906;6.786;2024-01-15T03:57:23;28.50;;;14.30;;
9128;SDS011;4599;50.906;6.786;2024-01-15T04:01:25;26.47;;;13.60;;
9128;SDS011;4599;50.906;6.786;2024-01-15T04:05:27;27.17;;;13.67;;
9128;SDS011;4599;50.906;6.786;2024-01-15T04:09:29;26.83;;;13.53;;
9128;SDS011;4599;50.906;6.786;2024-01-15T04:13:32;27.00;;;12.77;;
9128;SDS011;4599;50.906;6.786;2024-01-15T04:17:35;26.80;;;12.50;;
9128;SDS011;4599;50.906;6.786;2024-01-15T04:21:36;23.77;;;11.90;;
9128;SDS011;4599;50.906;6.786;2024-01-15T04:25:38;23.90;;;12.20;;
9128;SDS011;4599;50.906;6.786;2024-01-15T04:29:40;21.83;;;11.27;;
9128;SDS011;4599;50.906;6.786;2024-01-15T04:33:43;22.43;;;11.70;;
9128;SDS011;4599;50.906;6.786;2024-01-15T04:37:45;24.03;;;10.83;;
9128;SDS011;4599;50.906;6.786;2024-01-15T04:41:47;23.30;;;10.90;;
9128;SDS011;4599;50.906;6.786;2024-01-15T04:45:49;18.27;;;10.60;;
9128;SDS011;4599;50.906;6.786;2024-01-15T04:49:52;21.87;;;11.13;;
9128;SDS011;4599;50.906;6.786;2024-01-15T04:53:53;21.90;;;10.57;;
9128;SDS011;4599;50.906;6.786;2024-01-15T04:57:55;21.90;;;10.57;;
9128;SDS011;4599;50.906;6.786;2024-01-15T05:01:57;21.07;;;10.83;;
9128;SDS011;4599;50.906;6.786;2024-01-15T05:06:00;20.77;;;10.97;;
9128;SDS011;4599;50.906;6.786;2024-01-15T05:10:02;19.60;;;10.27;;
9128;SDS011;4599;50.906;6.786;2024-01-15T05:14:03;20.43;;;10.67;;
9128;SDS011;4599;50.906;6.786;2024-01-15T05:18:05;27.37;;;11.40;;
9128;SDS011;4599;50.906;6.786;2024-01-15T05:22:08;21.57;;;10.37;;
9128;SDS011;4599;50.906;6.786;2024-01-15T05:26:10;21.37;;;10.13;;
9128;SDS011;4599;50.906;6.786;2024-01-15T05:30:12;21.93;;;10.57;;
9128;SDS011;4599;50.906;6.786;2024-01-15T05:34:14;19.67;;;10.03;;
9128;SDS011;4599;50.906;6.786;2024-01-15T05:38:17;17.60;;;9.20;;
9128;SDS011;4599;50.906;6.786;2024-01-15T05:42:19;14.70;;;8.20;;
9128;SDS011;4599;50.906;6.786;2024-01-15T05:46:20;19.07;;;8.70;;
9128;SDS011;4599;50.906;6.786;2024-01-15T05:50:22;11.63;;;7.83;;
9128;SDS011;4599;50.906;6.786;2024-01-15T05:54:25;14.37;;;9.00;;
9128;SDS011;4599;50.906;6.786;2024-01-15T05:58:27;18.20;;;9.70;;
9128;SDS011;4599;50.906;6.786;2024-01-15T06:02:28;20.20;;;9.67;;
9128;SDS011;4599;50.906;6.786;2024-01-15T06:06:30;16.30;;;10.13;;
9128;SDS011;4599;50.906;6.786;2024-01-15T06:10:33;16.60;;;9.97;;
9128;SDS011;4599;50.906;6.786;2024-01-15T06:14:34;16.97;;;10.07;;
9128;SDS011;4599;50.906;6.786;2024-01-15T06:18:36;16.97;;;9.97;;
9128;SDS011;4599;50.906;6.786;2024-01-15T06:22:38;18.27;;;10.37;;
9128;SDS011;4599;50.906;6.786;2024-01-15T06:26:41;20.10;;;10.63;;
9128;SDS011;4599;50.906;6.786;2024-01-15T06:30:43;21.70;;;10.80;;
9128;SDS011;4599;50.906;6.786;2024-01-15T06:34:45;20.90;;;11.27;;
9128;SDS011;4599;50.906;6.786;2024-01-15T06:38:46;19.67;;;10.97;;
9128;SDS011;4599;50.906;6.786;2024-01-15T06:42:49;22.20;;;10.43;;
9128;SDS011;4599;50.906;6.786;2024-01-15T06:46:51;19.03;;;10.87;;
9128;SDS011;4599;50.906;6.786;2024-01-15T06:50:53;19.57;;;11.23;;
9128;SDS011;4599;50.906;6.786;2024-01-15T06:54:54;24.13;;;10.27;;
9128;SDS011;4599;50.906;6.786;2024-01-15T06:58:58;16.80;;;10.30;;
9128;SDS011;4599;50.906;6.786;2024-01-15T07:02:59;19.17;;;9.40;;
9128;SDS011;4599;50.906;6.786;2024-01-15T07:07:01;16.27;;;8.67;;
9128;SDS011;4599;50.906;6.786;2024-01-15T07:11:03;16.10;;;9.07;;
9128;SDS011;4599;50.906;6.786;2024-01-15T07:15:06;16.63;;;9.90;;
9128;SDS011;4599;50.906;6.786;2024-01-15T07:19:08;18.97;;;9.70;;
9128;SDS011;4599;50.906;6.786;2024-01-15T07:23:10;21.20;;;10.87;;
9128;SDS011;4599;50.906;6.786;2024-01-15T07:27:12;16.20;;;10.10;;
9128;SDS011;4599;50.906;6.786;2024-01-15T07:31:16;18.53;;;10.40;;
9128;SDS011;4599;50.906;6.786;2024-01-15T07:35:18;28.93;;;11.30;;
9128;SDS011;4599;50.906;6.786;2024-01-15T07:39:20;19.40;;;11.07;;
9128;SDS011;4599;50.906;6.786;2024-01-15T07:43:22;21.93;;;10.90;;
9128;SDS011;4599;50.906;6.786;2024-01-15T07:47:25;19.57;;;11.37;;
9128;SDS011;4599;50.906;6.786;2024-01-15T07:51:27;19.83;;;11.83;;
9128;SDS011;4599;50.906;6.786;2024-01-15T07:55:29;24.00;;;12.90;;
9128;SDS011;4599;50.906;6.786;2024-01-15T07:59:30;25.73;;;13.67;;
9128;SDS011;4599;50.906;6.786;2024-01-15T08:03:33;26.77;;;13.03;;
9128;SDS011;4599;50.906;6.786;2024-01-15T08:07:35;24.07;;;12.80;;
9128;SDS011;4599;50.906;6.786;2024-01-15T08:11:38;26.17;;;12.60;;
9128;SDS011;4599;50.906;6.786;2024-01-15T08:15:41;26.20;;;12.87;;
9128;SDS011;4599;50.906;6.786;2024-01-15T08:19:45;21.67;;;12.07;;
9128;SDS011;4599;50.906;6.786;2024-01-15T08:23:47;19.23;;;11.57;;
9128;SDS011;4599;50.906;6.786;2024-01-15T08:27:48;23.10;;;12.03;;
9128;SDS011;4599;50.906;6.786;2024-01-15T08:31:50;22.73;;;11.70;;
9128;SDS011;4599;50.906;6.786;2024-01-15T08:35:53;17.03;;;10.93;;
9128;SDS011;4599;50.906;6.786;2024-01-15T08:39:55;21.53;;;11.53;;
9128;SDS011;4599;50.906;6.786;2024-01-15T08:43:57;19.10;;;10.00;;
9128;SDS011;4599;50.906;6.786;2024-01-15T08:47:59;20.13;;;10.47;;
9128;SDS011;4599;50.906;6.786;2024-01-15T08:52:03;14.63;;;10.50;;
9128;SDS011;4599;50.906;6.786;2024-01-15T08:56:05;17.17;;;10.43;;
9128;SDS011;4599;50.906;6.786;2024-01-15T09:00:07;20.50;;;11.00;;
9128;SDS011;4599;50.906;6.786;2024-01-15T09:04:10;15.47;;;8.77;;
9128;SDS011;4599;50.906;6.786;2024-01-15T09:08:13;14.50;;;7.80;;
9128;SDS011;4599;50.906;6.786;2024-01-15T09:12:15;19.93;;;7.87;;
9128;SDS011;4599;50.906;6.786;2024-01-15T09:16:17;10.23;;;6.83;;
9128;SDS011;4599;50.906;6.786;2024-01-15T09:20:19;13.87;;;7.20;;
9128;SDS011;4599;50.906;6.786;2024-01-15T09:24:22;11.67;;;6.77;;
9128;SDS011;4599;50.906;6.786;2024-01-15T09:28:29;9.73;;;6.60;;
9128;SDS011;4599;50.906;6.786;2024-01-15T09:32:30;10.00;;;6.30;;
9128;SDS011;4599;50.906;6.786;2024-01-15T09:36:32;10.57;;;6.13;;
9128;SDS011;4599;50.906;6.786;2024-01-15T09:40:35;9.40;;;6.27;;
9128;SDS011;4599;50.906;6.786;2024-01-15T09:44:39;8.07;;;5.33;;
9128;SDS011;4599;50.906;6.786;2024-01-15T09:48:41;8.40;;;5.30;;
9128;SDS011;4599;50.906;6.786;2024-01-15T09:52:43;8.33;;;5.57;;
9128;SDS011;4599;50.906;6.786;2024-01-15T09:56:47;8.40;;;5.40;;
9128;SDS011;4599;50.906;6.786;2024-01-15T10:00:48;9.73;;;5.37;;
9128;SDS011;4599;50.906;6.786;2024-01-15T10:04:50;8.97;;;4.77;;
9128;SDS011;4599;50.906;6.786;2024-01-15T10:08:52;10.40;;;5.43;;
9128;SDS011;4599;50.906;6.786;2024-01-15T10:12:56;7.27;;;5.03;;
9128;SDS011;4599;50.906;6.786;2024-01-15T10:16:59;7.07;;;5.03;;
9128;SDS011;4599;50.906;6.786;2024-01-15T10:21:01;8.00;;;4.90;;
9128;SDS011;4599;50.906;6.786;2024-01-15T10:25:04;6.03;;;4.83;;
9128;SDS011;4599;50.906;6.786;2024-01-15T10:29:07;8.23;;;5.57;;
9128;SDS011;4599;50.906;6.786;2024-01-15T10:33:09;10.67;;;5.47;;
9128;SDS011;4599;50.906;6.786;2024-01-15T10:37:11;9.47;;;5.50;;
9128;SDS011;4599;50.906;6.786;2024-01-15T10:41:13;7.33;;;4.70;;
9128;SDS011;4599;50.906;6.786;2024-01-15T10:45:16;8.73;;;5.03;;
9128;SDS011;4599;50.906;6.786;2024-01-15T10:49:18;7.53;;;4.60;;
9128;SDS011;4599;50.906;6.786;2024-01-15T10:53:21;9.40;;;4.50;;
9128;SDS011;4599;50.906;6.786;2024-01-15T10:57:22;5.97;;;4.27;;
9128;SDS011;4599;50.906;6.786;2024-01-15T11:01:29;4.70;;;4.07;;
9128;SDS011;4599;50.906;6.786;2024-01-15T11:05:33;5.40;;;4.17;;
9128;SDS011;4599;50.906;6.786;2024-01-15T11:09:35;8.00;;;5.13;;
9128;SDS011;4599;50.906;6.786;2024-01-15T11:13:40;5.50;;;4.80;;
9128;SDS011;4599;50.906;6.786;2024-01-15T11:17:59;6.87;;;5.27;;
9128;SDS011;4599;50.906;6.786;2024-01-15T11:22:02;8.17;;;6.47;;
9128;SDS011;4599;50.906;6.786;2024-01-15T11:26:05;8.17;;;6.77;;
9128;SDS011;4599;50.906;6.786;2024-01-15T11:30:30;8.23;;;6.90;;
9128;SDS011;4599;50.906;6.786;2024-01-15T11:39:08;7.60;;;6.80;;
9128;SDS011;4599;50.906;6.786;2024-01-15T11:43:41;7.50;;;6.20;;
9128;SDS011;4599;50.906;6.786;2024-01-15T11:47:56;11.93;;;7.17;;
9128;SDS011;4599;50.906;6.786;2024-01-15T11:52:15;8.80;;;6.23;;
9128;SDS011;4599;50.906;6.786;2024-01-15T11:56:19;12.37;;;7.00;;
9128;SDS011;4599;50.906;6.786;2024-01-15T12:00:24;8.97;;;6.13;;
9128;SDS011;4599;50.906;6.786;2024-01-15T12:04:26;10.10;;;6.43;;
9128;SDS011;4599;50.906;6.786;2024-01-15T12:08:29;12.47;;;6.63;;
9128;SDS011;4599;50.906;6.786;2024-01-15T12:12:34;12.27;;;7.27;;
9128;SDS011;4599;50.906;6.786;2024-01-15T12:16:44;13.70;;;7.33;;
9128;SDS011;4599;50.906;6.786;2024-01-15T12:20:46;12.67;;;6.23;;
9128;SDS011;4599;50.906;6.786;2024-01-15T12:24:49;12.67;;;6.23;;
9128;SDS011;4599;50.906;6.786;2024-01-15T12:28:50;13.17;;;5.50;;
9128;SDS011;4599;50.906;6.786;2024-01-15T12:32:55;13.87;;;5.00;;
9128;SDS011;4599;50.906;6.786;2024-01-15T12:36:57;11.63;;;4.87;;
9128;SDS011;4599;50.906;6.786;2024-01-15T12:41:01;10.97;;;4.30;;
9128;SDS011;4599;50.906;6.786;2024-01-15T12:45:03;11.33;;;4.83;;
9128;SDS011;4599;50.906;6.786;2024-01-15T12:49:07;13.80;;;4.40;;
9128;SDS011;4599;50.906;6.786;2024-01-15T12:53:09;12.60;;;4.40;;
9128;SDS011;4599;50.906;6.786;2024-01-15T12:57:13;11.17;;;3.93;;
9128;SDS011;4599;50.906;6.786;2024-01-15T13:01:15;11.07;;;3.63;;
9128;SDS011;4599;50.906;6.786;2024-01-15T13:05:17;10.23;;;3.27;;
9128;SDS011;4599;50.906;6.786;2024-01-15T13:09:21;11.27;;;3.70;;
9128;SDS011;4599;50.906;6.786;2024-01-15T13:13:24;8.30;;;3.73;;
9128;SDS011;4599;50.906;6.786;2024-01-15T13:17:27;11.30;;;3.70;;
9128;SDS011;4599;50.906;6.786;2024-01-15T13:21:29;9.00;;;3.17;;
9128;SDS011;4599;50.906;6.786;2024-01-15T13:25:31;9.50;;;3.40;;
9128;SDS011;4599;50.906;6.786;2024-01-15T13:29:34;7.63;;;2.73;;
9128;SDS011;4599;50.906;6.786;2024-01-15T13:33:35;5.10;;;2.57;;
9128;SDS011;4599;50.906;6.786;2024-01-15T13:37:40;5.87;;;2.70;;
9128;SDS011;4599;50.906;6.786;2024-01-15T13:41:42;5.70;;;2.00;;
9128;SDS011;4599;50.906;6.786;2024-01-15T13:45:45;3.90;;;2.00;;
9128;SDS011;4599;50.906;6.786;2024-01-15T13:49:46;5.43;;;1.60;;
9128;SDS011;4599;50.906;6.786;2024-01-15T13:53:48;2.17;;;1.40;;
9128;SDS011;4599;50.906;6.786;2024-01-15T13:57:50;2.03;;;1.37;;
9128;SDS011;4599;50.906;6.786;2024-01-15T14:01:52;2.83;;;1.67;;
9128;SDS011;4599;50.906;6.786;2024-01-15T14:05:54;4.07;;;1.83;;
9128;SDS011;4599;50.906;6.786;2024-01-15T14:09:56;5.97;;;2.07;;
9128;SDS011;4599;50.906;6.786;2024-01-15T14:13:57;3.87;;;1.90;;
9128;SDS011;4599;50.906;6.786;2024-01-15T14:18:00;2.77;;;1.70;;
9128;SDS011;4599;50.906;6.786;2024-01-15T14:22:02;3.23;;;1.97;;
9128;SDS011;4599;50.906;6.786;2024-01-15T14:26:05;3.40;;;1.67;;
9128;SDS011;4599;50.906;6.786;2024-01-15T14:30:07;4.80;;;1.70;;
9128;SDS011;4599;50.906;6.786;2024-01-15T14:34:10;3.27;;;1.50;;
9128;SDS011;4599;50.906;6.786;2024-01-15T14:38:12;2.93;;;1.70;;
9128;SDS011;4599;50.906;6.786;2024-01-15T14:42:14;1.50;;;1.23;;
9128;SDS011;4599;50.906;6.786;2024-01-15T14:46:16;4.27;;;1.50;;
9128;SDS011;4599;50.906;6.786;2024-01-15T14:50:19;2.07;;;1.60;;
9128;SDS011;4599;50.906;6.786;2024-01-15T14:54:21;2.17;;;1.97;;
9128;SDS011;4599;50.906;6.786;2024-01-15T14:58:25;4.00;;;1.90;;
9128;SDS011;4599;50.906;6.786;2024-01-15T15:02:27;4.47;;;1.70;;
9128;SDS011;4599;50.906;6.786;2024-01-15T15:06:33;2.67;;;1.73;;
9128;SDS011;4599;50.906;6.786;2024-01-15T15:10:35;4.93;;;2.10;;
9128;SDS011;4599;50.906;6.786;2024-01-15T15:14:36;4.70;;;1.80;;
9128;SDS011;4599;50.906;6.786;2024-01-15T15:18:52;2.63;;;1.67;;
9128;SDS011;4599;50.906;6.786;2024-01-15T15:22:55;2.17;;;1.87;;
9128;SDS011;4599;50.906;6.786;2024-01-15T15:26:57;2.20;;;1.77;;
9128;SDS011;4599;50.906;6.786;2024-01-15T15:31:00;5.40;;;2.03;;
9128;SDS011;4599;50.906;6.786;2024-01-15T15:35:02;3.37;;;2.40;;
9128;SDS011;4599;50.906;6.786;2024-01-15T15:39:05;3.27;;;1.93;;
9128;SDS011;4599;50.906;6.786;2024-01-15T15:43:07;3.03;;;2.07;;
9128;SDS011;4599;50.906;6.786;2024-01-15T15:47:09;2.73;;;2.20;;
9128;SDS011;4599;50.906;6.786;2024-01-15T15:51:10;2.70;;;1.83;;
9128;SDS011;4599;50.906;6.786;2024-01-15T15:55:13;2.23;;;2.00;;
9128;SDS011;4599;50.906;6.786;2024-01-15T15:59:15;3.63;;;2.40;;
9128;SDS011;4599;50.906;6.786;2024-01-15T16:03:17;4.57;;;2.60;;
9128;SDS011;4599;50.906;6.786;2024-01-15T16:07:19;4.00;;;2.10;;
9128;SDS011;4599;50.906;6.786;2024-01-15T16:11:22;6.20;;;2.47;;
9128;SDS011;4599;50.906;6.786;2024-01-15T16:15:23;4.43;;;2.50;;
9128;SDS011;4599;50.906;6.786;2024-01-15T16:19:25;2.83;;;2.30;;
9128;SDS011;4599;50.906;6.786;2024-01-15T16:23:47;3.20;;;2.50;;
9128;SDS011;4599;50.906;6.786;2024-01-15T16:28:10;3.30;;;2.53;;
9128;SDS011;4599;50.906;6.786;2024-01-15T16:32:12;4.23;;;2.50;;
9128;SDS011;4599;50.906;6.786;2024-01-15T16:36:14;5.47;;;3.00;;
9128;SDS011;4599;50.906;6.786;2024-01-15T16:40:15;6.93;;;3.60;;
9128;SDS011;4599;50.906;6.786;2024-01-15T16:44:18;7.60;;;3.20;;
9128;SDS011;4599;50.906;6.786;2024-01-15T16:48:20;9.13;;;3.07;;
9128;SDS011;4599;50.906;6.786;2024-01-15T16:52:22;7.27;;;3.20;;
9128;SDS011;4599;50.906;6.786;2024-01-15T16:56:24;9.17;;;3.40;;
9128;SDS011;4599;50.906;6.786;2024-01-15T17:00:27;5.30;;;2.90;;
9128;SDS011;4599;50.906;6.786;2024-01-15T17:04:28;6.63;;;3.00;;
9128;SDS011;4599;50.906;6.786;2024-01-15T17:08:30;9.33;;;3.70;;
9128;SDS011;4599;50.906;6.786;2024-01-15T17:12:32;3.80;;;3.33;;
9128;SDS011;4599;50.906;6.786;2024-01-15T17:16:35;6.23;;;3.47;;
9128;SDS011;4599;50.906;6.786;2024-01-15T17:20:36;7.93;;;3.50;;
9128;SDS011;4599;50.906;6.786;2024-01-15T17:24:38;10.40;;;3.93;;
9128;SDS011;4599;50.906;6.786;2024-01-15T17:28:40;7.40;;;3.90;;
9128;SDS011;4599;50.906;6.786;2024-01-15T17:32:43;5.97;;;3.57;;
9128;SDS011;4599;50.906;6.786;2024-01-15T17:36:45;6.57;;;3.20;;
9128;SDS011;4599;50.906;6.786;2024-01-15T17:40:47;8.67;;;3.60;;
9128;SDS011;4599;50.906;6.786;2024-01-15T17:44:48;8.77;;;3.63;;
9128;SDS011;4599;50.906;6.786;2024-01-15T17:48:51;7.33;;;3.57;;
9128;SDS011;4599;50.906;6.786;2024-01-15T17:52:53;6.33;;;3.30;;
9128;SDS011;4599;50.906;6.786;2024-01-15T17:56:55;6.93;;;3.20;;
9128;SDS011;4599;50.906;6.786;2024-01-15T18:00:56;12.33;;;3.10;;
9128;SDS011;4599;50.906;6.786;2024-01-15T18:05:01;6.93;;;3.40;;
9128;SDS011;4599;50.906;6.786;2024-01-15T18:09:03;5.37;;;2.83;;
9128;SDS011;4599;50.906;6.786;2024-01-15T18:13:05;6.67;;;3.60;;
9128;SDS011;4599;50.906;6.786;2024-01-15T18:17:06;4.70;;;3.83;;
9128;SDS011;4599;50.906;6.786;2024-01-15T18:21:10;9.23;;;4.03;;
9128;SDS011;4599;50.906;6.786;2024-01-15T18:25:11;10.83;;;4.13;;
9128;SDS011;4599;50.906;6.786;2024-01-15T18:29:13;8.00;;;4.20;;
9128;SDS011;4599;50.906;6.786;2024-01-15T18:33:15;9.60;;;4.50;;
9128;SDS011;4599;50.906;6.786;2024-01-15T18:37:18;10.83;;;4.53;;
9128;SDS011;4599;50.906;6.786;2024-01-15T18:41:19;10.17;;;4.67;;
9128;SDS011;4599;50.906;6.786;2024-01-15T18:45:21;10.30;;;4.80;;
9128;SDS011;4599;50.906;6.786;2024-01-15T18:49:23;11.27;;;5.07;;
9128;SDS011;4599;50.906;6.786;2024-01-15T18:53:26;10.00;;;4.40;;
9128;SDS011;4599;50.906;6.786;2024-01-15T18:57:28;10.00;;;4.73;;
9128;SDS011;4599;50.906;6.786;2024-01-15T19:01:30;12.33;;;4.77;;
9128;SDS011;4599;50.906;6.786;2024-01-15T19:05:32;9.53;;;4.40;;
9128;SDS011;4599;50.906;6.786;2024-01-15T19:09:35;10.80;;;5.03;;
9128;SDS011;4599;50.906;6.786;2024-01-15T19:13:37;8.53;;;4.87;;
9128;SDS011;4599;50.906;6.786;2024-01-15T19:17:39;18.63;;;4.50;;
9128;SDS011;4599;50.906;6.786;2024-01-15T19:21:41;10.33;;;4.70;;
9128;SDS011;4599;50.906;6.786;2024-01-15T19:25:44;9.37;;;4.97;;
9128;SDS011;4599;50.906;6.786;2024-01-15T19:29:46;10.17;;;4.97;;
9128;SDS011;4599;50.906;6.786;2024-01-15T19:33:47;10.90;;;5.83;;
9128;SDS011;4599;50.906;6.786;2024-01-15T19:37:49;9.43;;;5.60;;
9128;SDS011;4599;50.906;6.786;2024-01-15T19:41:52;10.50;;;5.70;;
9128;SDS011;4599;50.906;6.786;2024-01-15T19:45:54;16.10;;;5.93;;
9128;SDS011;4599;50.906;6.786;2024-01-15T19:49:55;14.03;;;6.20;;
9128;SDS011;4599;50.906;6.786;2024-01-15T19:53:57;15.43;;;6.83;;
9128;SDS011;4599;50.906;6.786;2024-01-15T19:58:00;13.27;;;6.80;;
9128;SDS011;4599;50.906;6.786;2024-01-15T20:02:02;14.07;;;6.97;;
9128;SDS011;4599;50.906;6.786;2024-01-15T20:06:04;12.27;;;7.13;;
9128;SDS011;4599;50.906;6.786;2024-01-15T20:10:06;11.30;;;6.70;;
9128;SDS011;4599;50.906;6.786;2024-01-15T20:14:10;11.67;;;6.97;;
9128;SDS011;4599;50.906;6.786;2024-01-15T20:18:12;11.90;;;6.37;;
9128;SDS011;4599;50.906;6.786;2024-01-15T20:22:14;15.90;;;6.37;;
9128;SDS011;4599;50.906;6.786;2024-01-15T20:26:16;13.03;;;6.37;;
9128;SDS011;4599;50.906;6.786;2024-01-15T20:30:19;17.20;;;5.90;;
9128;SDS011;4599;50.906;6.786;2024-01-15T20:34:21;12.47;;;4.97;;
9128;SDS011;4599;50.906;6.786;2024-01-15T20:38:23;11.23;;;5.10;;
9128;SDS011;4599;50.906;6.786;2024-01-15T20:42:25;11.07;;;4.63;;
9128;SDS011;4599;50.906;6.786;2024-01-15T20:46:28;8.77;;;4.57;;
9128;SDS011;4599;50.906;6.786;2024-01-15T20:50:30;8.37;;;4.73;;
9128;SDS011;4599;50.906;6.786;2024-01-15T20:54:33;16.33;;;4.47;;
9128;SDS011;4599;50.906;6.786;2024-01-15T20:58:35;8.60;;;4.10;;
9128;SDS011;4599;50.906;6.786;2024-01-15T21:02:38;6.90;;;3.93;;
9128;SDS011;4599;50.906;6.786;2024-01-15T21:06:40;8.80;;;4.63;;
9128;SDS011;4599;50.906;6.786;2024-01-15T21:10:42;7.73;;;4.50;;
9128;SDS011;4599;50.906;6.786;2024-01-15T21:14:45;14.67;;;4.63;;
9128;SDS011;4599;50.906;6.786;2024-01-15T21:18:49;9.33;;;3.83;;
9128;SDS011;4599;50.906;6.786;2024-01-15T21:22:50;10.47;;;4.60;;
9128;SDS011;4599;50.906;6.786;2024-01-15T21:26:52;7.80;;;4.90;;
9128;SDS011;4599;50.906;6.786;2024-01-15T21:30:54;9.80;;;5.60;;
9128;SDS011;4599;50.906;6.786;2024-01-15T21:34:57;10.13;;;5.30;;
9128;SDS011;4599;50.906;6.786;2024-01-15T21:39:00;11.40;;;5.37;;
9128;SDS011;4599;50.906;6.786;2024-01-15T21:43:02;10.47;;;5.27;;
9128;SDS011;4599;50.906;6.786;2024-01-15T21:47:03;11.13;;;5.20;;
9128;SDS011;4599;50.906;6.786;2024-01-15T21:51:07;10.07;;;5.40;;
9128;SDS011;4599;50.906;6.786;2024-01-15T21:55:09;9.93;;;5.93;;
9128;SDS011;4599;50.906;6.786;2024-01-15T21:59:10;10.30;;;6.13;;
9128;SDS011;4599;50.906;6.786;2024-01-15T22:03:13;8.43;;;5.73;;
9128;SDS011;4599;50.906;6.786;2024-01-15T22:07:16;10.93;;;5.80;;
9128;SDS011;4599;50.906;6.786;2024-01-15T22:11:18;15.37;;;6.03;;
9128;SDS011;4599;50.906;6.786;2024-01-15T22:15:20;12.03;;;6.27;;
9128;SDS011;4599;50.906;6.786;2024-01-15T22:19:21;10.97;;;6.10;;
9128;SDS011;4599;50.906;6.786;2024-01-15T22:23:24;11.97;;;6.57;;
9128;SDS011;4599;50.906;6.786;2024-01-15T22:27:26;12.90;;;6.83;;
9128;SDS011;4599;50.906;6.786;2024-01-15T22:31:28;13.60;;;7.67;;
9128;SDS011;4599;50.906;6.786;2024-01-15T22:35:29;12.13;;;6.73;;
9128;SDS011;4599;50.906;6.786;2024-01-15T22:39:33;12.73;;;6.73;;
9128;SDS011;4599;50.906;6.786;2024-01-15T22:43:35;10.80;;;7.00;;
9128;SDS011;4599;50.906;6.786;2024-01-15T22:47:36;11.63;;;6.83;;
9128;SDS011;4599;50.906;6.786;2024-01-15T22:51:38;11.87;;;6.43;;
9128;SDS011;4599;50.906;6.786;2024-01-15T22:55:41;11.00;;;7.03;;
9128;SDS011;4599;50.906;6.786;2024-01-15T22:59:43;12.63;;;7.17;;
9128;SDS011;4599;50.906;6.786;2024-01-15T23:03:45;11.30;;;6.50;;
9128;SDS011;4599;50.906;6.786;2024-01-15T23:07:48;13.40;;;6.70;;
9128;SDS011;4599;50.906;6.786;2024-01-15T23:11:51;11.73;;;6.90;;
9128;SDS011;4599;50.906;6.786;2024-01-15T23:15:53;10.83;;;6.53;;
9128;SDS011;4599;50.906;6.786;2024-01-15T23:19:54;13.70;;;7.10;;
9128;SDS011;4599;50.906;6.786;2024-01-15T23:23:57;14.03;;;6.07;;
9128;SDS011;4599;50.906;6.786;2024-01-15T23:28:00;12.40;;;6.50;;
9128;SDS011;4599;50.906;6.786;2024-01-15T23:32:01;9.67;;;5.43;;
9128;SDS011;4599;50.906;6.786;2024-01-15T23:36:05;15.47;;;5.93;;
9128;SDS011;4599;50.906;6.786;2024-01-15T23:40:08;9.10;;;5.70;;
9128;SDS011;4599;50.906;6.786;2024-01-15T23:44:11;12.67;;;5.60;;
9128;SDS011;4599;50.906;6.786;2024-01-15T23:48:13;14.43;;;5.93;;
9128;SDS011;4599;50.906;6.786;2024-01-15T23:52:14;15.87;;;5.63;;
9128;SDS011;4599;50.906;6.786;2024-01-15T23:56:16;14.27;;;5.97;;
